createdAt,value
2024-01-20T00:15:09.529Z,25.60
2024-01-20T00:30:35.490Z,25.60
2024-01-20T00:46:01.471Z,25.70
2024-01-20T01:01:27.456Z,25.60
2024-01-20T01:16:53.570Z,25.40
2024-01-20T01:32:19.622Z,25.10
2024-01-20T01:47:45.494Z,24.80
2024-01-20T02:03:11.639Z,24.40
2024-01-20T02:18:37.653Z,24.20
2024-01-20T02:34:03.632Z,23.90
2024-01-20T02:49:29.572Z,23.50
2024-01-20T03:04:55.434Z,23.30
2024-01-20T03:20:21.465Z,23.00
2024-01-20T03:35:47.410Z,22.70
2024-01-20T03:51:13.435Z,22.40
2024-01-20T04:06:39.357Z,22.20
2024-01-20T04:22:05.486Z,21.90
2024-01-20T04:37:31.371Z,21.60
2024-01-20T04:52:57.363Z,21.30
2024-01-20T05:08:23.378Z,21.00
2024-01-20T05:23:49.322Z,20.80
2024-01-20T05:39:15.365Z,20.80
2024-01-20T05:54:40.416Z,20.80
2024-01-20T06:10:05.409Z,20.70
2024-01-20T06:25:31.335Z,20.60
2024-01-20T06:40:57.256Z,20.40
2024-01-20T06:56:22.248Z,20.30
2024-01-20T07:11:47.234Z,20.10
2024-01-20T07:27:12.319Z,20.00
2024-01-20T07:42:37.372Z,20.00
2024-01-20T07:58:03.217Z,20.40
2024-01-20T08:13:29.495Z,20.90
2024-01-20T08:28:55.234Z,21.30
2024-01-20T08:44:21.252Z,21.70
2024-01-20T08:59:47.259Z,22.00
2024-01-20T09:15:13.390Z,22.10
2024-01-20T09:30:39.181Z,22.20
2024-01-20T09:46:05.164Z,22.30
2024-01-20T10:01:31.207Z,22.60
2024-01-20T10:16:56.077Z,22.90
2024-01-20T10:32:21.156Z,22.90
2024-01-20T10:47:47.190Z,23.00
2024-01-20T11:03:13.249Z,23.20
2024-01-20T11:18:39.163Z,23.50
2024-01-20T11:34:05.299Z,23.60
2024-01-20T11:49:31.306Z,23.80
2024-01-20T12:05:02.248Z,24.00
2024-01-20T12:20:23.162Z,24.00
2024-01-20T12:35:49.127Z,24.10
2024-01-20T12:51:15.216Z,24.30
2024-01-20T13:06:41.259Z,24.30
2024-01-20T13:22:07.110Z,24.30
2024-01-20T13:37:33.100Z,24.30
2024-01-20T13:52:59.064Z,24.30
2024-01-20T14:08:25.032Z,24.20
2024-01-20T14:23:51.018Z,24.10
2024-01-20T14:39:17.094Z,24.10
2024-01-20T14:54:43.335Z,24.20
2024-01-20T15:10:08.992Z,24.10
2024-01-20T15:25:35.000Z,24.10
2024-01-20T15:41:02.051Z,24.10
2024-01-20T15:56:26.956Z,24.00
2024-01-20T16:11:53.037Z,23.90
2024-01-20T16:27:20.019Z,23.90
2024-01-20T16:42:46.024Z,23.90
2024-01-20T16:58:10.913Z,23.90
2024-01-20T17:13:35.917Z,23.90
2024-01-20T17:29:00.948Z,23.90
2024-01-20T17:44:26.892Z,23.90
2024-01-20T17:59:52.917Z,23.90
2024-01-20T18:15:18.977Z,24.10
2024-01-20T18:30:45.069Z,24.20
2024-01-20T18:46:09.921Z,24.20
2024-01-20T19:01:34.894Z,24.40
2024-01-20T19:17:00.855Z,24.40
2024-01-20T19:32:26.846Z,24.40
2024-01-20T19:47:52.953Z,24.40
2024-01-20T20:03:17.965Z,24.50
2024-01-20T20:18:43.989Z,24.50
2024-01-20T20:34:10.214Z,24.50
2024-01-20T20:49:35.903Z,24.50
2024-01-20T21:05:01.897Z,24.50
2024-01-20T21:20:27.906Z,24.60
2024-01-20T21:35:53.755Z,24.60
2024-01-20T21:51:19.860Z,24.60
2024-01-20T22:06:45.880Z,24.70
2024-01-20T22:22:11.799Z,24.70
2024-01-20T22:37:36.767Z,24.60
2024-01-20T22:53:01.737Z,24.50
2024-01-20T23:08:27.774Z,24.60
2024-01-20T23:23:52.804Z,24.60
2024-01-20T23:39:18.834Z,24.70
2024-01-20T23:54:44.829Z,24.50
